createdAt,value
2022-12-20T00:02:08.844Z,97788.66
2022-12-20T00:04:35.387Z,97781.50
2022-12-20T00:07:01.999Z,97779.59
2022-12-20T00:09:28.419Z,97776.56
2022-12-20T00:11:54.851Z,97763.38
2022-12-20T00:14:21.158Z,97766.66
2022-12-20T00:16:47.573Z,97755.81
2022-12-20T00:19:13.972Z,97753.06
2022-12-20T00:21:40.407Z,97755.00
2022-12-20T00:24:06.821Z,97739.75
2022-12-20T00:26:33.232Z,97737.94
2022-12-20T00:29:00.016Z,97741.91
2022-12-20T00:31:28.015Z,97740.56
2022-12-20T00:33:54.563Z,97748.53
2022-12-20T00:36:22.183Z,97745.22
2022-12-20T00:38:48.579Z,97731.72
2022-12-20T00:41:15.763Z,97738.88
2022-12-20T00:43:42.240Z,97737.09
2022-12-20T00:46:12.056Z,97736.44
2022-12-20T00:48:38.465Z,97734.78
2022-12-20T00:51:04.886Z,97740.81
2022-12-20T00:53:31.255Z,97733.69
2022-12-20T00:55:57.673Z,97730.38
2022-12-20T00:58:24.122Z,97737.47
2022-12-20T01:00:55.772Z,97742.94
2022-12-20T01:03:23.273Z,97740.16
2022-12-20T01:05:49.886Z,97752.25
2022-12-20T01:08:16.327Z,97752.63
2022-12-20T01:10:42.721Z,97759.78
2022-12-20T01:13:09.187Z,97748.53
2022-12-20T01:15:35.652Z,97748.50
2022-12-20T01:18:02.094Z,97750.44
2022-12-20T01:20:28.523Z,97735.75
2022-12-20T01:22:54.906Z,97744.94
2022-12-20T01:25:21.343Z,97753.06
2022-12-20T01:27:47.765Z,97741.53
2022-12-20T01:30:14.518Z,97753.38
2022-12-20T01:32:41.051Z,97745.28
2022-12-20T01:35:07.504Z,97741.97
2022-12-20T01:37:33.900Z,97736.56
2022-12-20T01:40:00.332Z,97732.72
2022-12-20T01:42:26.828Z,97730.03
2022-12-20T01:44:53.261Z,97737.56
2022-12-20T01:47:20.071Z,97736.44
2022-12-20T01:49:46.491Z,97746.53
2022-12-20T01:52:13.688Z,97745.50
2022-12-20T01:54:40.204Z,97745.72
2022-12-20T01:57:07.392Z,97748.19
2022-12-20T01:59:33.844Z,97738.81
2022-12-20T02:02:00.497Z,97742.97
2022-12-20T02:04:27.047Z,97742.94
2022-12-20T02:06:53.475Z,97745.16
2022-12-20T02:09:19.872Z,97755.78
2022-12-20T02:11:46.567Z,97751.19
2022-12-20T02:14:13.014Z,97751.88
2022-12-20T02:16:39.538Z,97751.50
2022-12-20T02:19:06.484Z,97753.34
2022-12-20T02:21:32.932Z,97749.09
2022-12-20T02:24:00.794Z,97749.38
2022-12-20T02:26:27.423Z,97749.47
2022-12-20T02:28:53.988Z,97746.47
2022-12-20T02:31:20.452Z,97744.97
2022-12-20T02:33:48.035Z,97741.06
2022-12-20T02:36:14.554Z,97743.09
2022-12-20T02:38:41.190Z,97724.47
2022-12-20T02:41:07.890Z,97727.25
2022-12-20T02:43:53.069Z,97716.03
2022-12-20T02:46:19.567Z,97712.47
2022-12-20T02:48:46.055Z,97716.56
2022-12-20T02:51:12.550Z,97714.97
2022-12-20T02:53:38.941Z,97714.19
2022-12-20T02:56:05.812Z,97716.41
2022-12-20T02:58:32.903Z,97722.00
2022-12-20T03:01:04.532Z,97723.81
2022-12-20T03:03:31.130Z,97724.56
2022-12-20T03:05:57.629Z,97718.34
2022-12-20T03:08:24.169Z,97719.41
2022-12-20T03:10:50.741Z,97718.72
2022-12-20T03:13:17.246Z,97727.09
2022-12-20T03:15:49.370Z,97722.75
2022-12-20T03:18:15.787Z,97725.81
2022-12-20T03:20:42.227Z,97721.25
2022-12-20T03:23:08.648Z,97721.84
2022-12-20T03:25:35.154Z,97720.75
2022-12-20T03:28:03.105Z,97715.88
2022-12-20T03:30:29.926Z,97711.75
2022-12-20T03:32:56.528Z,97714.22
2022-12-20T03:35:23.109Z,97711.09
2022-12-20T03:37:49.589Z,97715.25
2022-12-20T03:40:16.196Z,97712.44
2022-12-20T03:42:43.900Z,97721.34
2022-12-20T03:45:10.555Z,97724.47
2022-12-20T03:47:37.133Z,97727.69
2022-12-20T03:50:04.507Z,97733.75
2022-12-20T03:52:34.344Z,97749.06
2022-12-20T03:55:00.855Z,97747.94
2022-12-20T03:57:35.985Z,97746.91
2022-12-20T04:00:04.960Z,97752.47
2022-12-20T04:02:41.186Z,97761.13
2022-12-20T04:05:09.740Z,97762.66
2022-12-20T04:07:40.465Z,97770.66
2022-12-20T04:10:07.078Z,97774.41
2022-12-20T04:12:33.554Z,97775.00
2022-12-20T04:15:00.495Z,97796.00
2022-12-20T04:17:29.399Z,97788.84
2022-12-20T04:19:56.175Z,97800.75
2022-12-20T04:22:22.881Z,97799.84
2022-12-20T04:24:55.888Z,97806.75
2022-12-20T04:27:25.061Z,97829.59
2022-12-20T04:29:53.568Z,97848.28
2022-12-20T04:32:20.934Z,97852.72
2022-12-20T04:34:48.525Z,97852.91
2022-12-20T04:37:15.112Z,97852.75
2022-12-20T04:39:48.899Z,97851.06
2022-12-20T04:42:24.875Z,97872.16
2022-12-20T04:44:53.060Z,97887.44
2022-12-20T04:47:26.274Z,97898.63
2022-12-20T04:49:54.411Z,97902.50
2022-12-20T04:52:45.492Z,97906.16
2022-12-20T04:55:14.061Z,97905.75
2022-12-20T04:57:40.565Z,97910.22
2022-12-20T05:00:07.243Z,97924.94
2022-12-20T05:02:33.821Z,97930.06
2022-12-20T05:05:05.601Z,97951.53
2022-12-20T05:07:38.352Z,97958.25
2022-12-20T05:10:04.789Z,97967.91
2022-12-20T05:12:31.242Z,97972.31
2022-12-20T05:15:00.317Z,97983.88
2022-12-20T05:17:26.713Z,98004.22
2022-12-20T05:19:53.340Z,98030.19
2022-12-20T05:22:39.581Z,98042.75
2022-12-20T05:25:28.603Z,98060.81
2022-12-20T05:27:57.469Z,98063.91
2022-12-20T05:30:27.066Z,98084.97
2022-12-20T05:32:53.548Z,98111.72
2022-12-20T05:35:20.105Z,98118.59
2022-12-20T05:37:51.351Z,98125.06
2022-12-20T05:40:19.771Z,98127.47
2022-12-20T05:42:46.220Z,98137.00
2022-12-20T05:45:13.744Z,98153.13
2022-12-20T05:47:52.204Z,98162.25
2022-12-20T05:50:19.364Z,98155.09
2022-12-20T05:53:13.129Z,98144.09
2022-12-20T05:55:45.851Z,98152.88
2022-12-20T05:58:13.679Z,98140.22
2022-12-20T06:00:49.986Z,98136.06
2022-12-20T06:03:17.249Z,98127.69
2022-12-20T06:05:44.310Z,98088.81
2022-12-20T06:08:14.637Z,98067.75
2022-12-20T06:10:41.881Z,98064.47
2022-12-20T06:13:08.467Z,98063.03
2022-12-20T06:15:36.502Z,98051.25
2022-12-20T06:18:03.718Z,98034.16
2022-12-20T06:20:30.189Z,98034.84
2022-12-20T06:22:59.076Z,98025.97
2022-12-20T06:25:29.465Z,98000.69
2022-12-20T06:27:56.058Z,97992.28
2022-12-20T06:30:26.390Z,97991.31
2022-12-20T06:33:04.922Z,97990.56
2022-12-20T06:35:31.723Z,97968.63
2022-12-20T06:37:59.061Z,97957.28
2022-12-20T06:40:28.382Z,97936.63
2022-12-20T06:42:57.933Z,97915.28
2022-12-20T06:45:24.788Z,97885.34
2022-12-20T06:47:52.121Z,97861.56
2022-12-20T06:50:18.729Z,97837.59
2022-12-20T06:52:45.155Z,97822.72
2022-12-20T06:55:11.765Z,97811.53
2022-12-20T06:57:41.002Z,97805.94
2022-12-20T07:00:08.601Z,97800.94
2022-12-20T07:02:35.422Z,97784.16
2022-12-20T07:05:01.937Z,97779.22
2022-12-20T07:07:28.393Z,97770.09
2022-12-20T07:09:54.775Z,97761.56
2022-12-20T07:12:21.211Z,97752.06
2022-12-20T07:14:47.611Z,97749.75
2022-12-20T07:17:14.179Z,97747.66
2022-12-20T07:19:45.629Z,97747.19
2022-12-20T07:22:15.145Z,97739.41
2022-12-20T07:24:41.560Z,97733.03
2022-12-20T07:27:08.161Z,97722.56
2022-12-20T07:29:34.608Z,97722.78
2022-12-20T07:32:01.180Z,97714.78
2022-12-20T07:34:27.599Z,97712.03
2022-12-20T07:36:54.061Z,97692.75
2022-12-20T07:39:20.463Z,97685.75
2022-12-20T07:41:48.962Z,97687.00
2022-12-20T07:44:16.610Z,97678.34
2022-12-20T07:46:43.105Z,97673.81
2022-12-20T07:49:09.602Z,97668.75
2022-12-20T07:51:36.180Z,97662.88
2022-12-20T07:54:06.063Z,97652.38
2022-12-20T07:56:36.028Z,97642.81
2022-12-20T07:59:07.019Z,97632.72
2022-12-20T08:01:33.581Z,97622.03
2022-12-20T08:04:00.076Z,97608.75
2022-12-20T08:06:26.653Z,97603.50
2022-12-20T08:08:53.047Z,97596.63
2022-12-20T08:11:19.508Z,97601.63
2022-12-20T08:13:46.783Z,97595.88
2022-12-20T08:16:13.956Z,97608.47
2022-12-20T08:18:40.353Z,97608.81
2022-12-20T08:21:06.801Z,97605.56
2022-12-20T08:23:33.188Z,97602.50
2022-12-20T08:25:59.630Z,97607.28
2022-12-20T08:28:26.004Z,97601.75
2022-12-20T08:30:52.497Z,97610.13
2022-12-20T08:33:19.681Z,97611.16
2022-12-20T08:35:46.395Z,97606.41
2022-12-20T08:38:12.785Z,97604.94
2022-12-20T08:40:39.219Z,97600.19
2022-12-20T08:43:10.176Z,97589.66
2022-12-20T08:45:36.951Z,97588.03
2022-12-20T08:48:03.387Z,97581.50
2022-12-20T08:50:29.816Z,97583.97
2022-12-20T08:52:56.237Z,97596.81
2022-12-20T08:55:27.724Z,97592.16
2022-12-20T08:57:55.917Z,97593.66
2022-12-20T09:00:22.365Z,97594.91
2022-12-20T09:02:49.636Z,97583.53
2022-12-20T09:05:16.311Z,97582.25
2022-12-20T09:07:42.724Z,97586.50
2022-12-20T09:10:09.198Z,97580.47
2022-12-20T09:12:35.589Z,97586.75
2022-12-20T09:15:02.290Z,97582.38
2022-12-20T09:17:28.691Z,97585.34
2022-12-20T09:19:55.276Z,97584.34
2022-12-20T09:22:21.681Z,97589.94
2022-12-20T09:24:49.206Z,97575.84
2022-12-20T09:27:15.619Z,97580.94
2022-12-20T09:29:41.969Z,97578.81
2022-12-20T09:32:21.867Z,97580.44
2022-12-20T09:34:49.901Z,97581.56
2022-12-20T09:37:16.313Z,97576.00
2022-12-20T09:39:42.702Z,97582.72
2022-12-20T09:42:09.435Z,97579.94
2022-12-20T09:44:35.810Z,97594.22
2022-12-20T09:47:09.834Z,97590.91
2022-12-20T09:49:39.155Z,97585.03
2022-12-20T09:52:05.664Z,97580.09
2022-12-20T09:54:32.075Z,97567.63
2022-12-20T09:56:58.504Z,97570.28
2022-12-20T09:59:26.043Z,97557.13
2022-12-20T10:01:53.053Z,97556.00
2022-12-20T10:04:19.756Z,97559.25
2022-12-20T10:06:46.580Z,97559.09
2022-12-20T10:09:13.085Z,97555.19
2022-12-20T10:11:46.222Z,97559.09
2022-12-20T10:14:16.477Z,97563.34
2022-12-20T10:16:43.170Z,97557.44
2022-12-20T10:19:09.617Z,97562.69
2022-12-20T10:21:36.108Z,97554.19
2022-12-20T10:24:02.565Z,97544.81
2022-12-20T10:26:28.990Z,97543.19
2022-12-20T10:28:55.416Z,97543.19
2022-12-20T10:31:22.000Z,97550.09
2022-12-20T10:33:48.437Z,97541.06
2022-12-20T10:36:14.840Z,97526.81
2022-12-20T10:38:41.265Z,97530.25
2022-12-20T10:41:20.887Z,97519.75
2022-12-20T10:43:48.530Z,97505.63
2022-12-20T10:46:16.660Z,97502.34
2022-12-20T10:48:43.421Z,97502.31
2022-12-20T10:51:15.292Z,97498.69
2022-12-20T10:53:42.737Z,97493.94
2022-12-20T10:56:09.141Z,97486.53
2022-12-20T10:58:35.556Z,97484.22
2022-12-20T11:01:02.000Z,97495.94
2022-12-20T11:03:29.814Z,97490.72
2022-12-20T11:05:56.401Z,97481.34
2022-12-20T11:08:37.433Z,97489.53
2022-12-20T11:11:07.158Z,97496.94
2022-12-20T11:13:33.620Z,97495.78
2022-12-20T11:16:01.779Z,97501.81
2022-12-20T11:18:28.514Z,97495.91
2022-12-20T11:20:55.594Z,97492.91
2022-12-20T11:23:22.019Z,97488.78
2022-12-20T11:25:48.450Z,97476.97
2022-12-20T11:28:14.934Z,97486.19
2022-12-20T11:30:41.336Z,97474.69
2022-12-20T11:33:07.824Z,97471.09
2022-12-20T11:35:34.236Z,97472.81
2022-12-20T11:38:07.251Z,97466.56
2022-12-20T11:40:35.812Z,97465.94
2022-12-20T11:43:02.191Z,97461.91
2022-12-20T11:45:28.642Z,97460.66
2022-12-20T11:47:56.104Z,97455.94
2022-12-20T11:50:22.539Z,97466.41
2022-12-20T11:52:48.937Z,97459.28
2022-12-20T11:55:15.376Z,97454.69
2022-12-20T11:58:02.165Z,97454.56
2022-12-20T12:00:28.181Z,97450.00
2022-12-20T12:02:58.453Z,97443.00
2022-12-20T12:05:25.361Z,97435.53
2022-12-20T12:07:51.767Z,97425.00
2022-12-20T12:10:18.195Z,97428.41
2022-12-20T12:12:44.667Z,97434.66
2022-12-20T12:15:16.057Z,97429.25
2022-12-20T12:17:43.487Z,97431.06
2022-12-20T12:20:10.043Z,97439.13
2022-12-20T12:22:36.468Z,97435.66
2022-12-20T12:25:03.022Z,97429.75
2022-12-20T12:27:29.405Z,97431.69
2022-12-20T12:29:56.495Z,97428.56
2022-12-20T12:32:23.183Z,97426.41
2022-12-20T12:34:49.671Z,97431.25
2022-12-20T12:37:16.121Z,97418.88
2022-12-20T12:39:42.520Z,97406.41
2022-12-20T12:42:09.004Z,97404.13
2022-12-20T12:44:35.471Z,97394.91
2022-12-20T12:47:01.979Z,97398.88
2022-12-20T12:49:28.600Z,97396.59
2022-12-20T12:51:55.736Z,97396.06
2022-12-20T12:54:22.179Z,97385.13
2022-12-20T12:56:48.858Z,97388.75
2022-12-20T12:59:15.985Z,97391.38
2022-12-20T13:01:42.545Z,97385.78
2022-12-20T13:04:09.405Z,97380.00
2022-12-20T13:06:36.131Z,97373.91
2022-12-20T13:09:03.309Z,97368.03
2022-12-20T13:11:29.857Z,97369.38
2022-12-20T13:13:56.254Z,97355.91
2022-12-20T13:16:31.324Z,97356.53
2022-12-20T13:19:08.949Z,97364.03
2022-12-20T13:21:35.372Z,97354.88
2022-12-20T13:24:01.751Z,97356.81
2022-12-20T13:26:28.269Z,97344.84
2022-12-20T13:28:54.644Z,97351.56
2022-12-20T13:31:21.188Z,97349.09
2022-12-20T13:33:47.695Z,97357.50
2022-12-20T13:36:14.208Z,97349.66
2022-12-20T13:38:40.778Z,97345.72
2022-12-20T13:41:07.263Z,97349.53
2022-12-20T13:43:33.603Z,97353.72
2022-12-20T13:46:00.015Z,97342.88
2022-12-20T13:48:26.509Z,97345.19
2022-12-20T13:50:53.037Z,97351.59
2022-12-20T13:53:19.506Z,97346.03
2022-12-20T13:55:45.984Z,97336.97
2022-12-20T13:58:12.369Z,97347.34
2022-12-20T14:00:38.770Z,97338.25
2022-12-20T14:03:05.220Z,97343.56
2022-12-20T14:05:31.677Z,97345.25
2022-12-20T14:07:58.072Z,97339.47
2022-12-20T14:10:24.641Z,97331.50
2022-12-20T14:12:54.300Z,97325.22
2022-12-20T14:15:20.760Z,97325.59
2022-12-20T14:17:47.269Z,97337.31
2022-12-20T14:20:14.470Z,97332.22
2022-12-20T14:22:40.868Z,97327.41
2022-12-20T14:25:07.250Z,97336.09
2022-12-20T14:27:33.603Z,97327.00
2022-12-20T14:30:00.422Z,97333.69
2022-12-20T14:32:27.015Z,97334.69
2022-12-20T14:34:54.018Z,97337.50
2022-12-20T14:37:20.900Z,97331.25
2022-12-20T14:39:47.248Z,97323.09
2022-12-20T14:42:13.658Z,97322.75
2022-12-20T14:44:40.023Z,97323.22
2022-12-20T14:47:06.682Z,97326.72
2022-12-20T14:49:33.108Z,97333.97
2022-12-20T14:51:59.484Z,97332.78
2022-12-20T14:55:05.474Z,97328.72
2022-12-20T14:57:12.733Z,97327.53
2022-12-20T14:59:39.119Z,97331.25
2022-12-20T15:02:05.620Z,97343.13
2022-12-20T15:04:32.300Z,97343.09
2022-12-20T15:06:58.689Z,97351.25
2022-12-20T15:09:25.063Z,97349.63
2022-12-20T15:11:51.799Z,97340.97
2022-12-20T15:14:18.299Z,97351.50
2022-12-20T15:16:44.759Z,97346.44
2022-12-20T15:19:11.152Z,97339.03
2022-12-20T15:21:38.495Z,97337.06
2022-12-20T15:24:08.075Z,97332.09
2022-12-20T15:26:34.485Z,97338.97
2022-12-20T15:29:00.836Z,97327.78
2022-12-20T15:31:33.052Z,97327.78
2022-12-20T15:34:02.338Z,97332.59
2022-12-20T15:36:28.895Z,97314.97
2022-12-20T15:39:11.952Z,97314.91
2022-12-20T15:41:46.039Z,97318.03
2022-12-20T15:44:14.817Z,97300.84
2022-12-20T15:46:41.648Z,97296.97
2022-12-20T15:49:08.056Z,97289.38
2022-12-20T15:51:34.499Z,97290.97
2022-12-20T15:54:00.972Z,97288.25
2022-12-20T15:56:27.351Z,97304.81
2022-12-20T15:58:53.784Z,97310.72
2022-12-20T16:01:20.605Z,97302.28
2022-12-20T16:03:47.184Z,97304.41
2022-12-20T16:06:13.645Z,97304.75
2022-12-20T16:08:40.038Z,97301.44
2022-12-20T16:11:06.446Z,97292.13
2022-12-20T16:13:32.826Z,97292.41
2022-12-20T16:16:00.393Z,97285.84
2022-12-20T16:18:30.122Z,97285.59
2022-12-20T16:21:00.788Z,97301.94
2022-12-20T16:23:27.403Z,97310.59
2022-12-20T16:25:54.199Z,97317.53
2022-12-20T16:28:20.596Z,97314.69
2022-12-20T16:30:52.876Z,97309.28
2022-12-20T16:33:20.019Z,97300.31
2022-12-20T16:35:46.482Z,97295.66
2022-12-20T16:38:12.915Z,97295.94
2022-12-20T16:40:39.300Z,97283.28
2022-12-20T16:43:05.702Z,97286.94
2022-12-20T16:45:32.898Z,97279.13
2022-12-20T16:47:59.273Z,97277.63
2022-12-20T16:50:25.929Z,97278.09
2022-12-20T16:52:52.353Z,97266.66
2022-12-20T16:55:18.780Z,97272.38
2022-12-20T16:57:45.164Z,97275.13
2022-12-20T17:00:11.588Z,97272.25
2022-12-20T17:02:38.084Z,97249.69
2022-12-20T17:05:05.074Z,97246.41
2022-12-20T17:07:35.293Z,97256.03
2022-12-20T17:10:04.466Z,97249.28
2022-12-20T17:12:30.822Z,97245.38
2022-12-20T17:14:57.231Z,97246.50
2022-12-20T17:17:23.602Z,97244.31
2022-12-20T17:19:50.605Z,97232.41
2022-12-20T17:22:23.858Z,97234.81
2022-12-20T17:24:50.249Z,97233.81
2022-12-20T17:27:16.637Z,97237.44
2022-12-20T17:29:43.148Z,97227.59
2022-12-20T17:32:09.705Z,97233.91
2022-12-20T17:34:36.522Z,97228.41
2022-12-20T17:37:02.929Z,97232.34
2022-12-20T17:39:29.363Z,97233.66
2022-12-20T17:41:55.812Z,97220.56
2022-12-20T17:44:22.212Z,97217.63
2022-12-20T17:46:48.610Z,97213.03
2022-12-20T17:49:15.010Z,97221.88
2022-12-20T17:51:41.396Z,97216.56
2022-12-20T17:54:07.754Z,97214.94
2022-12-20T17:56:34.157Z,97220.75
2022-12-20T17:59:00.539Z,97218.75
2022-12-20T18:01:27.123Z,97203.94
2022-12-20T18:04:03.383Z,97196.84
2022-12-20T18:06:31.279Z,97192.03
2022-12-20T18:08:57.657Z,97205.97
2022-12-20T18:11:24.364Z,97209.34
2022-12-20T18:13:50.704Z,97212.50
2022-12-20T18:16:17.272Z,97211.81
2022-12-20T18:18:43.693Z,97222.91
2022-12-20T18:21:10.310Z,97227.44
2022-12-20T18:23:36.834Z,97236.56
2022-12-20T18:26:03.320Z,97248.59
2022-12-20T18:28:29.679Z,97230.44
2022-12-20T18:30:56.106Z,97220.28
2022-12-20T18:33:22.479Z,97201.53
2022-12-20T18:35:48.841Z,97184.75
2022-12-20T18:38:16.467Z,97204.81
2022-12-20T18:40:43.026Z,97210.41
2022-12-20T18:43:09.491Z,97212.31
2022-12-20T18:45:35.956Z,97208.56
2022-12-20T18:48:02.403Z,97181.22
2022-12-20T18:50:28.809Z,97183.78
2022-12-20T18:53:00.955Z,97182.34
2022-12-20T18:55:27.874Z,97183.50
2022-12-20T18:57:54.388Z,97174.66
2022-12-20T19:00:20.754Z,97177.78
2022-12-20T19:02:47.298Z,97179.34
2022-12-20T19:05:13.766Z,97209.44
2022-12-20T19:07:40.126Z,97207.88
2022-12-20T19:10:06.520Z,97216.97
2022-12-20T19:12:33.025Z,97219.69
2022-12-20T19:14:59.460Z,97207.94
2022-12-20T19:17:26.220Z,97213.19
2022-12-20T19:19:52.639Z,97204.66
2022-12-20T19:22:22.025Z,97212.97
2022-12-20T19:24:48.443Z,97221.50
2022-12-20T19:27:15.502Z,97217.56
2022-12-20T19:29:41.952Z,97226.25
2022-12-20T19:32:09.619Z,97210.97
2022-12-20T19:34:43.476Z,97197.84
2022-12-20T19:37:09.911Z,97196.13
2022-12-20T19:39:36.337Z,97200.31
2022-12-20T19:42:22.883Z,97189.84
2022-12-20T19:44:49.757Z,97192.19
2022-12-20T19:47:16.152Z,97198.25
2022-12-20T19:49:42.572Z,97179.94
2022-12-20T19:52:09.054Z,97168.47
2022-12-20T19:54:35.672Z,97150.69
2022-12-20T19:57:02.166Z,97149.25
2022-12-20T19:59:30.731Z,97162.38
2022-12-20T20:01:57.429Z,97165.28
2022-12-20T20:04:23.930Z,97164.59
2022-12-20T20:06:50.346Z,97154.28
2022-12-20T20:09:17.019Z,97158.16
2022-12-20T20:11:43.507Z,97157.63
2022-12-20T20:14:10.376Z,97157.69
2022-12-20T20:16:36.839Z,97165.31
2022-12-20T20:19:03.262Z,97163.13
2022-12-20T20:21:29.745Z,97164.88
2022-12-20T20:23:56.210Z,97167.09
2022-12-20T20:26:22.688Z,97164.19
2022-12-20T20:28:49.146Z,97171.09
2022-12-20T20:31:15.700Z,97179.38
2022-12-20T20:33:42.217Z,97177.13
2022-12-20T20:36:08.604Z,97187.88
2022-12-20T20:38:35.024Z,97188.25
2022-12-20T20:41:01.429Z,97180.78
2022-12-20T20:43:29.785Z,97179.66
2022-12-20T20:45:56.521Z,97189.88
2022-12-20T20:48:22.936Z,97188.63
2022-12-20T20:50:49.467Z,97198.88
2022-12-20T20:53:15.894Z,97182.47
2022-12-20T20:55:42.328Z,97185.75
2022-12-20T20:58:08.709Z,97190.44
2022-12-20T21:00:35.166Z,97191.03
2022-12-20T21:03:01.793Z,97191.75
2022-12-20T21:08:17.703Z,97185.63
2022-12-20T21:10:44.808Z,97178.38
2022-12-20T21:13:12.231Z,97173.13
2022-12-20T21:15:40.826Z,97176.53
2022-12-20T21:18:07.315Z,97180.22
2022-12-20T21:20:34.031Z,97173.78
2022-12-20T21:23:01.492Z,97163.50
2022-12-20T21:25:28.048Z,97159.78
2022-12-20T21:27:54.434Z,97162.16
2022-12-20T21:30:21.032Z,97173.75
2022-12-20T21:32:47.431Z,97161.00
2022-12-20T21:35:13.859Z,97163.09
2022-12-20T21:37:40.294Z,97161.25
2022-12-20T21:40:06.737Z,97159.19
2022-12-20T21:42:33.141Z,97153.94
2022-12-20T21:44:59.520Z,97157.50
2022-12-20T21:47:25.929Z,97146.25
2022-12-20T21:49:52.340Z,97137.00
2022-12-20T21:52:18.764Z,97144.19
2022-12-20T21:54:45.134Z,97171.44
2022-12-20T21:57:11.506Z,97170.63
2022-12-20T21:59:37.868Z,97176.53
2022-12-20T22:02:04.757Z,97168.34
2022-12-20T22:04:31.355Z,97166.59
2022-12-20T22:06:57.765Z,97181.81
2022-12-20T22:09:24.173Z,97183.16
2022-12-20T22:11:50.559Z,97191.25
2022-12-20T22:14:16.901Z,97182.88
2022-12-20T22:16:43.635Z,97185.50
2022-12-20T22:19:10.064Z,97189.78
2022-12-20T22:21:38.012Z,97200.03
2022-12-20T22:24:04.419Z,97198.19
2022-12-20T22:26:30.821Z,97188.19
2022-12-20T22:28:57.251Z,97191.63
2022-12-20T22:31:24.410Z,97191.97
2022-12-20T22:33:50.779Z,97211.72
2022-12-20T22:36:17.201Z,97196.06
2022-12-20T22:38:43.661Z,97211.97
2022-12-20T22:41:10.053Z,97207.06
2022-12-20T22:43:37.534Z,97203.41
2022-12-20T22:46:04.004Z,97221.38
2022-12-20T22:48:30.363Z,97202.78
2022-12-20T22:50:56.790Z,97211.91
2022-12-20T22:53:23.146Z,97206.97
2022-12-20T22:55:49.526Z,97205.69
2022-12-20T22:58:15.886Z,97194.72
2022-12-20T23:00:42.281Z,97194.72
2022-12-20T23:03:08.953Z,97196.25
2022-12-20T23:05:35.569Z,97186.09
2022-12-20T23:08:02.018Z,97189.38
2022-12-20T23:10:47.258Z,97186.97
2022-12-20T23:13:32.215Z,97177.09
2022-12-20T23:15:58.603Z,97172.84
2022-12-20T23:18:24.961Z,97176.06
2022-12-20T23:21:10.197Z,97176.94
2022-12-20T23:23:36.545Z,97165.84
2022-12-20T23:26:02.926Z,97173.88
2022-12-20T23:28:29.306Z,97172.38
2022-12-20T23:30:55.673Z,97172.50
2022-12-20T23:33:22.027Z,97177.97
2022-12-20T23:35:48.423Z,97169.44
2022-12-20T23:38:14.767Z,97171.84
2022-12-20T23:40:41.322Z,97173.00
2022-12-20T23:43:07.844Z,97180.31
2022-12-20T23:45:34.244Z,97180.75
2022-12-20T23:48:00.672Z,97177.19
2022-12-20T23:50:27.358Z,97167.34
2022-12-20T23:52:53.741Z,97170.22
2022-12-20T23:55:20.160Z,97172.50
2022-12-20T23:57:46.542Z,97166.28
